sensor_id;sensor_type;location;lat;lon;timestamp;pressure;altitude;pressure_sealevel;temperature;humidity
74075;BME280;62428;51.412;5.432;2023-10-09T00:01:26;101929.28;;;14.50;100.00
74075;BME280;62428;51.412;5.432;2023-10-09T00:03:51;101921.69;;;14.52;100.00
74075;BME280;62428;51.412;5.432;2023-10-09T00:06:21;101917.91;;;14.53;100.00
74075;BME280;62428;51.412;5.432;2023-10-09T00:08:55;101920.84;;;14.57;100.00
74075;BME280;62428;51.412;5.432;2023-10-09T00:11:23;101916.25;;;14.57;100.00
74075;BME280;62428;51.412;5.432;2023-10-09T00:13:55;101922.97;;;14.60;100.00
74075;BME280;62428;51.412;5.432;2023-10-09T00:16:24;101911.84;;;14.61;100.00
74075;BME280;62428;51.412;5.432;2023-10-09T00:19:04;101915.06;;;14.64;100.00
74075;BME280;62428;51.412;5.432;2023-10-09T00:21:49;101920.97;;;14.66;100.00
74075;BME280;62428;51.412;5.432;2023-10-09T00:24:15;101918.00;;;14.67;100.00
74075;BME280;62428;51.412;5.432;2023-10-09T00:26:50;101901.97;;;14.71;100.00
74075;BME280;62428;51.412;5.432;2023-10-09T00:29:16;101883.06;;;14.71;100.00
74075;BME280;62428;51.412;5.432;2023-10-09T00:31:49;101894.38;;;14.73;100.00
74075;BME280;62428;51.412;5.432;2023-10-09T00:34:18;101898.69;;;14.74;100.00
74075;BME280;62428;51.412;5.432;2023-10-09T00:36:45;101895.41;;;14.77;100.00
74075;BME280;62428;51.412;5.432;2023-10-09T00:39:20;101892.09;;;14.80;100.00
74075;BME280;62428;51.412;5.432;2023-10-09T00:42:09;101901.84;;;14.81;100.00
74075;BME280;62428;51.412;5.432;2023-10-09T00:44:38;101890.72;;;14.83;100.00
74075;BME280;62428;51.412;5.432;2023-10-09T00:47:09;101881.50;;;14.84;100.00
74075;BME280;62428;51.412;5.432;2023-10-09T00:49:50;101872.59;;;14.83;100.00
74075;BME280;62428;51.412;5.432;2023-10-09T00:52:22;101867.97;;;14.84;100.00
74075;BME280;62428;51.412;5.432;2023-10-09T00:54:57;101876.09;;;14.84;100.00
74075;BME280;62428;51.412;5.432;2023-10-09T00:57:28;101867.69;;;14.85;100.00
74075;BME280;62428;51.412;5.432;2023-10-09T00:59:54;101851.16;;;14.87;100.00
74075;BME280;62428;51.412;5.432;2023-10-09T01:02:28;101861.97;;;14.87;100.00
74075;BME280;62428;51.412;5.432;2023-10-09T01:05:04;101882.53;;;14.88;100.00
74075;BME280;62428;51.412;5.432;2023-10-09T01:07:37;101884.13;;;14.89;100.00
74075;BME280;62428;51.412;5.432;2023-10-09T01:10:09;101882.22;;;14.89;100.00
74075;BME280;62428;51.412;5.432;2023-10-09T01:12:36;101897.38;;;14.90;100.00
74075;BME280;62428;51.412;5.432;2023-10-09T01:15:08;101878.44;;;14.90;100.00
74075;BME280;62428;51.412;5.432;2023-10-09T01:17:34;101870.59;;;14.89;100.00
74075;BME280;62428;51.412;5.432;2023-10-09T01:20:04;101886.53;;;14.90;100.00
74075;BME280;62428;51.412;5.432;2023-10-09T01:22:30;101890.88;;;14.91;100.00
74075;BME280;62428;51.412;5.432;2023-10-09T01:24:56;101878.94;;;14.92;100.00
74075;BME280;62428;51.412;5.432;2023-10-09T01:27:21;101879.44;;;14.94;100.00
74075;BME280;62428;51.412;5.432;2023-10-09T01:29:49;101877.56;;;14.95;100.00
74075;BME280;62428;51.412;5.432;2023-10-09T01:32:17;101879.16;;;14.96;100.00
74075;BME280;62428;51.412;5.432;2023-10-09T01:34:45;101881.56;;;14.97;100.00
74075;BME280;62428;51.412;5.432;2023-10-09T01:37:18;101892.88;;;14.99;100.00
74075;BME280;62428;51.412;5.432;2023-10-09T01:39:45;101889.09;;;15.01;100.00
74075;BME280;62428;51.412;5.432;2023-10-09T01:42:13;101885.28;;;15.02;100.00
74075;BME280;62428;51.412;5.432;2023-10-09T01:44:50;101891.47;;;15.02;100.00
74075;BME280;62428;51.412;5.432;2023-10-09T01:47:16;101886.59;;;15.04;100.00
74075;BME280;62428;51.412;5.432;2023-10-09T01:49:44;101877.38;;;15.05;100.00
74075;BME280;62428;51.412;5.432;2023-10-09T01:52:14;101878.16;;;15.06;100.00
74075;BME280;62428;51.412;5.432;2023-10-09T01:54:44;101880.56;;;15.07;100.00
74075;BME280;62428;51.412;5.432;2023-10-09T01:57:14;101877.88;;;15.07;100.00
74075;BME280;62428;51.412;5.432;2023-10-09T01:59:48;101876.00;;;15.08;100.00
74075;BME280;62428;51.412;5.432;2023-10-09T02:02:18;101877.88;;;15.07;100.00
74075;BME280;62428;51.412;5.432;2023-10-09T02:04:50;101880.28;;;15.09;100.00
74075;BME280;62428;51.412;5.432;2023-10-09T02:07:15;101871.06;;;15.10;100.00
74075;BME280;62428;51.412;5.432;2023-10-09T02:09:47;101878.09;;;15.11;100.00
74075;BME280;62428;51.412;5.432;2023-10-09T02:12:13;101875.09;;;15.12;100.00
74075;BME280;62428;51.412;5.432;2023-10-09T02:14:38;101872.38;;;15.12;100.00
74075;BME280;62428;51.412;5.432;2023-10-09T02:17:07;101877.78;;;15.12;100.00
74075;BME280;62428;51.412;5.432;2023-10-09T02:19:54;101876.69;;;15.13;100.00
74075;BME280;62428;51.412;5.432;2023-10-09T02:22:20;101875.09;;;15.12;100.00
74075;BME280;62428;51.412;5.432;2023-10-09T02:24:46;101863.16;;;15.13;100.00
74075;BME280;62428;51.412;5.432;2023-10-09T02:27:15;101874.78;;;15.14;100.00
74075;BME280;62428;51.412;5.432;2023-10-09T02:29:59;101870.47;;;15.13;100.00
74075;BME280;62428;51.412;5.432;2023-10-09T02:32:24;101873.16;;;15.13;100.00
74075;BME280;62428;51.412;5.432;2023-10-09T02:34:51;101874.28;;;15.12;100.00
74075;BME280;62428;51.412;5.432;2023-10-09T02:37:19;101881.63;;;15.11;100.00
74075;BME280;62428;51.412;5.432;2023-10-09T02:39:49;101863.47;;;15.12;100.00
74075;BME280;62428;51.412;5.432;2023-10-09T02:42:18;101847.22;;;15.12;100.00
74075;BME280;62428;51.412;5.432;2023-10-09T02:44:53;101840.19;;;15.11;100.00
74075;BME280;62428;51.412;5.432;2023-10-09T02:47:19;101833.97;;;15.10;100.00
74075;BME280;62428;51.412;5.432;2023-10-09T02:50:05;101839.41;;;15.10;100.00
74075;BME280;62428;51.412;5.432;2023-10-09T02:52:37;101833.69;;;15.12;100.00
74075;BME280;62428;51.412;5.432;2023-10-09T02:55:08;101833.97;;;15.10;100.00
74075;BME280;62428;51.412;5.432;2023-10-09T02:57:48;101842.09;;;15.10;100.00
74075;BME280;62428;51.412;5.432;2023-10-09T03:00:17;101842.41;;;15.09;100.00
74075;BME280;62428;51.412;5.432;2023-10-09T03:02:54;101839.69;;;15.09;100.00
74075;BME280;62428;51.412;5.432;2023-10-09T03:05:19;101830.78;;;15.08;100.00
74075;BME280;62428;51.412;5.432;2023-10-09T03:07:46;101833.47;;;15.08;100.00
74075;BME280;62428;51.412;5.432;2023-10-09T03:10:11;101831.56;;;15.09;100.00
74075;BME280;62428;51.412;5.432;2023-10-09T03:12:37;101833.19;;;15.10;100.00
74075;BME280;62428;51.412;5.432;2023-10-09T03:15:05;101851.00;;;15.11;100.00
74075;BME280;62428;51.412;5.432;2023-10-09T03:17:33;101854.53;;;15.11;100.00
74075;BME280;62428;51.412;5.432;2023-10-09T03:20:05;101845.31;;;15.12;100.00
74075;BME280;62428;51.412;5.432;2023-10-09T03:22:38;101848.03;;;15.12;100.00
74075;BME280;62428;51.412;5.432;2023-10-09T03:25:05;101845.31;;;15.12;100.00
74075;BME280;62428;51.412;5.432;2023-10-09T03:27:38;101838.00;;;15.13;100.00
74075;BME280;62428;51.412;5.432;2023-10-09T03:30:08;101837.19;;;15.12;100.00
74075;BME280;62428;51.412;5.432;2023-10-09T03:32:35;101829.38;;;15.11;100.00
74075;BME280;62428;51.412;5.432;2023-10-09T03:35:00;101827.47;;;15.11;100.00
74075;BME280;62428;51.412;5.432;2023-10-09T03:37:28;101823.16;;;15.10;100.00
74075;BME280;62428;51.412;5.432;2023-10-09T03:40:01;101821.53;;;15.09;100.00
74075;BME280;62428;51.412;5.432;2023-10-09T03:42:26;101816.13;;;15.09;100.00
74075;BME280;62428;51.412;5.432;2023-10-09T03:44:51;101799.88;;;15.09;100.00
74075;BME280;62428;51.412;5.432;2023-10-09T03:47:18;101802.09;;;15.07;100.00
74075;BME280;62428;51.412;5.432;2023-10-09T03:49:48;101804.31;;;15.05;100.00
74075;BME280;62428;51.412;5.432;2023-10-09T03:52:16;101807.31;;;15.04;100.00
74075;BME280;62428;51.412;5.432;2023-10-09T03:54:43;101811.91;;;15.03;100.00
74075;BME280;62428;51.412;5.432;2023-10-09T03:57:11;101800.31;;;15.03;100.00
74075;BME280;62428;51.412;5.432;2023-10-09T03:59:39;101798.69;;;15.02;100.00
74075;BME280;62428;51.412;5.432;2023-10-09T04:02:05;101795.19;;;15.01;100.00
74075;BME280;62428;51.412;5.432;2023-10-09T04:04:30;101795.47;;;14.99;100.00
74075;BME280;62428;51.412;5.432;2023-10-09T04:06:58;101798.47;;;14.98;100.00
74075;BME280;62428;51.412;5.432;2023-10-09T04:09:24;101796.88;;;14.97;100.00
74075;BME280;62428;51.412;5.432;2023-10-09T04:11:50;101801.47;;;14.96;100.00
74075;BME280;62428;51.412;5.432;2023-10-09T04:14:42;101802.59;;;14.95;100.00
74075;BME280;62428;51.412;5.432;2023-10-09T04:17:20;101813.41;;;14.95;100.00
74075;BME280;62428;51.412;5.432;2023-10-09T04:19:58;101812.91;;;14.93;100.00
74075;BME280;62428;51.412;5.432;2023-10-09T04:22:42;101813.72;;;14.94;100.00
74075;BME280;62428;51.412;5.432;2023-10-09T04:25:19;101808.28;;;14.94;100.00
74075;BME280;62428;51.412;5.432;2023-10-09T04:27:55;101805.59;;;14.94;100.00
74075;BME280;62428;51.412;5.432;2023-10-09T04:30:36;101803.97;;;14.93;100.00
74075;BME280;62428;51.412;5.432;2023-10-09T04:33:08;101796.19;;;14.91;100.00
74075;BME280;62428;51.412;5.432;2023-10-09T04:36:03;101787.72;;;14.93;100.00
74075;BME280;62428;51.412;5.432;2023-10-09T04:38:45;101774.22;;;14.93;100.00
74075;BME280;62428;51.412;5.432;2023-10-09T04:41:32;101782.66;;;14.91;100.00
74075;BME280;62428;51.412;5.432;2023-10-09T04:44:07;101798.88;;;14.91;100.00
74075;BME280;62428;51.412;5.432;2023-10-09T04:46:59;101824.59;;;14.89;100.00
74075;BME280;62428;51.412;5.432;2023-10-09T04:49:39;101834.34;;;14.90;100.00
74075;BME280;62428;51.412;5.432;2023-10-09T04:52:17;101834.34;;;14.90;100.00
74075;BME280;62428;51.412;5.432;2023-10-09T04:54:58;101830.53;;;14.91;100.00
74075;BME280;62428;51.412;5.432;2023-10-09T04:57:43;101836.75;;;14.91;100.00
74075;BME280;62428;51.412;5.432;2023-10-09T05:00:09;101824.03;;;14.92;100.00
74075;BME280;62428;51.412;5.432;2023-10-09T05:03:07;101824.81;;;14.92;100.00
74075;BME280;62428;51.412;5.432;2023-10-09T05:05:37;101828.31;;;14.93;100.00
74075;BME280;62428;51.412;5.432;2023-10-09T05:10:49;101809.09;;;14.94;100.00
74075;BME280;62428;51.412;5.432;2023-10-09T05:13:24;101813.41;;;14.95;100.00
74075;BME280;62428;51.412;5.432;2023-10-09T05:16:14;101822.31;;;14.96;100.00
74075;BME280;62428;51.412;5.432;2023-10-09T05:18:58;101812.28;;;14.96;100.00
74075;BME280;62428;51.412;5.432;2023-10-09T05:21:49;101819.13;;;14.94;100.00
74075;BME280;62428;51.412;5.432;2023-10-09T05:24:15;101816.41;;;14.94;100.00
74075;BME280;62428;51.412;5.432;2023-10-09T05:29:22;101825.63;;;14.93;100.00
74075;BME280;62428;51.412;5.432;2023-10-09T05:31:54;101819.13;;;14.94;100.00
74075;BME280;62428;51.412;5.432;2023-10-09T05:34:29;101835.06;;;14.95;100.00
74075;BME280;62428;51.412;5.432;2023-10-09T05:37:05;101828.03;;;14.94;100.00
74075;BME280;62428;51.412;5.432;2023-10-09T05:39:56;101837.75;;;14.95;100.00
74075;BME280;62428;51.412;5.432;2023-10-09T05:42:33;101840.47;;;14.95;100.00
74075;BME280;62428;51.412;5.432;2023-10-09T05:45:09;101852.59;;;14.98;100.00
74075;BME280;62428;51.412;5.432;2023-10-09T05:47:51;101850.69;;;14.98;100.00
74075;BME280;62428;51.412;5.432;2023-10-09T05:50:26;101860.41;;;14.99;100.00
74075;BME280;62428;51.412;5.432;2023-10-09T05:52:53;101861.50;;;14.98;100.00
74075;BME280;62428;51.412;5.432;2023-10-09T05:57:44;101859.63;;;14.99;100.00
74075;BME280;62428;51.412;5.432;2023-10-09T06:00:28;101861.50;;;14.98;100.00
74075;BME280;62428;51.412;5.432;2023-10-09T06:03:12;101850.38;;;15.00;100.00
74075;BME280;62428;51.412;5.432;2023-10-09T06:05:50;101872.03;;;15.00;100.00
74075;BME280;62428;51.412;5.432;2023-10-09T06:08:36;101869.84;;;15.02;100.00
74075;BME280;62428;51.412;5.432;2023-10-09T06:11:09;101883.06;;;15.04;100.00
74075;BME280;62428;51.412;5.432;2023-10-09T06:13:54;101878.47;;;15.04;100.00
74075;BME280;62428;51.412;5.432;2023-10-09T06:16:35;101897.09;;;15.06;100.00
74075;BME280;62428;51.412;5.432;2023-10-09T06:19:15;101899.00;;;15.05;100.00
74075;BME280;62428;51.412;5.432;2023-10-09T06:21:47;101896.31;;;15.05;100.00
74075;BME280;62428;51.412;5.432;2023-10-09T06:24:19;101894.09;;;15.07;100.00
74075;BME280;62428;51.412;5.432;2023-10-09T06:26:45;101877.88;;;15.07;100.00
74075;BME280;62428;51.412;5.432;2023-10-09T06:29:23;101884.91;;;15.08;100.00
74075;BME280;62428;51.412;5.432;2023-10-09T06:32:17;101873.28;;;15.08;100.00
74075;BME280;62428;51.412;5.432;2023-10-09T06:34:59;101871.38;;;15.08;100.00
74075;BME280;62428;51.412;5.432;2023-10-09T06:37:45;101874.56;;;15.10;100.00
74075;BME280;62428;51.412;5.432;2023-10-09T06:40:28;101871.59;;;15.12;100.00
74075;BME280;62428;51.412;5.432;2023-10-09T06:43:13;101866.16;;;15.12;100.00
74075;BME280;62428;51.412;5.432;2023-10-09T06:45:58;101866.16;;;15.12;100.00
74075;BME280;62428;51.412;5.432;2023-10-09T06:48:44;101872.38;;;15.12;100.00
74075;BME280;62428;51.412;5.432;2023-10-09T06:51:21;101884.00;;;15.13;100.00
74075;BME280;62428;51.412;5.432;2023-10-09T06:53:50;101887.19;;;15.15;100.00
74075;BME280;62428;51.412;5.432;2023-10-09T06:56:20;101883.41;;;15.16;100.00
74075;BME280;62428;51.412;5.432;2023-10-09T06:59:05;101886.63;;;15.18;100.00
74075;BME280;62428;51.412;5.432;2023-10-09T07:01:42;101887.41;;;15.18;100.00
74075;BME280;62428;51.412;5.432;2023-10-09T07:04:09;101887.13;;;15.20;100.00
74075;BME280;62428;51.412;5.432;2023-10-09T07:06:50;101872.00;;;15.19;100.00
74075;BME280;62428;51.412;5.432;2023-10-09T07:09:22;101868.69;;;15.22;100.00
74075;BME280;62428;51.412;5.432;2023-10-09T07:11:52;101858.66;;;15.23;100.00
74075;BME280;62428;51.412;5.432;2023-10-09T07:14:19;101856.47;;;15.25;100.00
74075;BME280;62428;51.412;5.432;2023-10-09T07:19:50;101835.81;;;15.29;100.00
74075;BME280;62428;51.412;5.432;2023-10-09T07:22:16;101837.44;;;15.30;100.00
74075;BME280;62428;51.412;5.432;2023-10-09T07:24:53;101827.41;;;15.30;100.00
74075;BME280;62428;51.412;5.432;2023-10-09T07:27:29;101818.16;;;15.31;100.00
74075;BME280;62428;51.412;5.432;2023-10-09T07:30:12;101819.78;;;15.32;100.00
74075;BME280;62428;51.412;5.432;2023-10-09T07:33:02;101825.47;;;15.31;100.00
74075;BME280;62428;51.412;5.432;2023-10-09T07:35:31;101824.69;;;15.30;100.00
74075;BME280;62428;51.412;5.432;2023-10-09T07:38:06;101840.94;;;15.30;100.00
74075;BME280;62428;51.412;5.432;2023-10-09T07:40:43;101849.06;;;15.30;100.00
74075;BME280;62428;51.412;5.432;2023-10-09T07:43:40;101875.34;;;15.30;100.00
74075;BME280;62428;51.412;5.432;2023-10-09T07:46:18;101881.53;;;15.30;100.00
74075;BME280;62428;51.412;5.432;2023-10-09T07:49:17;101898.88;;;15.29;100.00
74075;BME280;62428;51.412;5.432;2023-10-09T07:51:50;101912.91;;;15.31;100.00
74075;BME280;62428;51.412;5.432;2023-10-09T07:54:18;101910.19;;;15.31;100.00
74075;BME280;62428;51.412;5.432;2023-10-09T07:56:57;101920.75;;;15.33;100.00
74075;BME280;62428;51.412;5.432;2023-10-09T07:59:36;101919.34;;;15.35;100.00
74075;BME280;62428;51.412;5.432;2023-10-09T08:02:07;101902.81;;;15.37;100.00
74075;BME280;62428;51.412;5.432;2023-10-09T08:04:39;101893.28;;;15.40;100.00
74075;BME280;62428;51.412;5.432;2023-10-09T08:07:14;101881.38;;;15.41;100.00
74075;BME280;62428;51.412;5.432;2023-10-09T08:09:53;101868.31;;;15.43;100.00
74075;BME280;62428;51.412;5.432;2023-10-09T08:12:37;101865.00;;;15.46;100.00
74075;BME280;62428;51.412;5.432;2023-10-09T08:15:15;101871.44;;;15.50;100.00
74075;BME280;62428;51.412;5.432;2023-10-09T08:17:53;101873.84;;;15.51;100.00
74075;BME280;62428;51.412;5.432;2023-10-09T08:20:23;101896.81;;;15.54;100.00
74075;BME280;62428;51.412;5.432;2023-10-09T08:22:55;101887.28;;;15.56;100.00
74075;BME280;62428;51.412;5.432;2023-10-09T08:25:24;101896.44;;;15.61;100.00
74075;BME280;62428;51.412;5.432;2023-10-09T08:27:54;101888.47;;;15.64;100.00
74075;BME280;62428;51.412;5.432;2023-10-09T08:30:21;101882.47;;;15.67;100.00
74075;BME280;62428;51.412;5.432;2023-10-09T08:32:48;101897.00;;;15.71;100.00
74075;BME280;62428;51.412;5.432;2023-10-09T08:35:30;101903.69;;;15.79;100.00
74075;BME280;62428;51.412;5.432;2023-10-09T08:37:59;101904.41;;;15.85;100.00
74075;BME280;62428;51.412;5.432;2023-10-09T08:40:32;101892.63;;;15.89;100.00
74075;BME280;62428;51.412;5.432;2023-10-09T08:43:09;101891.44;;;15.95;100.00
74075;BME280;62428;51.412;5.432;2023-10-09T08:45:39;101889.72;;;16.00;100.00
74075;BME280;62428;51.412;5.432;2023-10-09T08:48:07;101888.81;;;16.04;100.00
74075;BME280;62428;51.412;5.432;2023-10-09T08:50:32;101887.91;;;16.09;100.00
74075;BME280;62428;51.412;5.432;2023-10-09T08:53:00;101874.84;;;16.11;100.00
74075;BME280;62428;51.412;5.432;2023-10-09T08:55:26;101872.63;;;16.13;100.00
74075;BME280;62428;51.412;5.432;2023-10-09T08:57:51;101878.75;;;16.19;100.00
74075;BME280;62428;51.412;5.432;2023-10-09T09:00:18;101881.34;;;16.24;100.00
74075;BME280;62428;51.412;5.432;2023-10-09T09:02:58;101882.84;;;16.30;100.00
74075;BME280;62428;51.412;5.432;2023-10-09T09:05:25;101878.91;;;16.36;100.00
74075;BME280;62428;51.412;5.432;2023-10-09T09:07:54;101879.00;;;16.45;100.00
74075;BME280;62428;51.412;5.432;2023-10-09T09:10:27;101876.97;;;16.50;100.00
74075;BME280;62428;51.412;5.432;2023-10-09T09:13:03;101872.53;;;16.55;100.00
74075;BME280;62428;51.412;5.432;2023-10-09T09:15:29;101872.91;;;16.62;100.00
74075;BME280;62428;51.412;5.432;2023-10-09T09:18:06;101879.81;;;16.68;100.00
74075;BME280;62428;51.412;5.432;2023-10-09T09:20:31;101865.81;;;16.75;100.00
74075;BME280;62428;51.412;5.432;2023-10-09T09:23:02;101878.16;;;16.81;100.00
74075;BME280;62428;51.412;5.432;2023-10-09T09:25:47;101871.84;;;16.85;100.00
74075;BME280;62428;51.412;5.432;2023-10-09T09:28:24;101870.09;;;16.89;100.00
74075;BME280;62428;51.412;5.432;2023-10-09T09:30:52;101875.72;;;16.93;100.00
74075;BME280;62428;51.412;5.432;2023-10-09T09:33:23;101880.53;;;16.96;100.00
74075;BME280;62428;51.412;5.432;2023-10-09T09:36:05;101884.53;;;16.99;100.00
74075;BME280;62428;51.412;5.432;2023-10-09T09:38:33;101895.56;;;17.02;100.00
74075;BME280;62428;51.412;5.432;2023-10-09T09:41:13;101903.41;;;17.04;100.00
74075;BME280;62428;51.412;5.432;2023-10-09T09:43:58;101909.81;;;17.08;100.00
74075;BME280;62428;51.412;5.432;2023-10-09T09:46:28;101907.59;;;17.10;100.00
74075;BME280;62428;51.412;5.432;2023-10-09T09:49:02;101910.47;;;17.14;100.00
74075;BME280;62428;51.412;5.432;2023-10-09T09:51:34;101912.88;;;17.15;100.00
74075;BME280;62428;51.412;5.432;2023-10-09T09:54:01;101916.91;;;17.18;100.00
74075;BME280;62428;51.412;5.432;2023-10-09T09:56:36;101920.44;;;17.18;100.00
74075;BME280;62428;51.412;5.432;2023-10-09T09:59:04;101922.84;;;17.20;100.00
74075;BME280;62428;51.412;5.432;2023-10-09T10:01:32;101927.97;;;17.21;100.00
74075;BME280;62428;51.412;5.432;2023-10-09T10:06:30;101926.22;;;17.25;100.00
74075;BME280;62428;51.412;5.432;2023-10-09T10:08:57;101926.72;;;17.27;100.00
74075;BME280;62428;51.412;5.432;2023-10-09T10:11:42;101928.81;;;17.31;100.00
74075;BME280;62428;51.412;5.432;2023-10-09T10:14:10;101929.31;;;17.33;100.00
74075;BME280;62428;51.412;5.432;2023-10-09T10:20:05;101943.72;;;17.42;100.00
74075;BME280;62428;51.412;5.432;2023-10-09T10:22:43;101948.84;;;17.43;100.00
74075;BME280;62428;51.412;5.432;2023-10-09T10:25:33;101940.06;;;17.46;100.00
74075;BME280;62428;51.412;5.432;2023-10-09T10:28:20;101930.50;;;17.49;100.00
74075;BME280;62428;51.412;5.432;2023-10-09T10:31:04;101942.34;;;17.53;100.00
74075;BME280;62428;51.412;5.432;2023-10-09T10:36:24;101935.66;;;17.59;100.00
74075;BME280;62428;51.412;5.432;2023-10-09T10:39:02;101938.53;;;17.63;100.00
74075;BME280;62428;51.412;5.432;2023-10-09T10:41:35;101940.66;;;17.66;100.00
74075;BME280;62428;51.412;5.432;2023-10-09T10:44:32;101937.81;;;17.71;100.00
74075;BME280;62428;51.412;5.432;2023-10-09T10:47:11;101936.84;;;17.76;100.00
74075;BME280;62428;51.412;5.432;2023-10-09T10:49:54;101937.31;;;17.78;100.00
74075;BME280;62428;51.412;5.432;2023-10-09T10:52:24;101941.03;;;17.82;100.00
74075;BME280;62428;51.412;5.432;2023-10-09T10:55:14;101933.88;;;17.86;100.00
74075;BME280;62428;51.412;5.432;2023-10-09T10:57:44;101925.13;;;17.89;100.00
74075;BME280;62428;51.412;5.432;2023-10-09T11:00:19;101928.78;;;17.93;100.00
74075;BME280;62428;51.412;5.432;2023-10-09T11:03:03;101931.38;;;17.98;100.00
74075;BME280;62428;51.412;5.432;2023-10-09T11:05:44;101937.28;;;18.00;100.00
74075;BME280;62428;51.412;5.432;2023-10-09T11:08:16;101931.72;;;18.05;100.00
74075;BME280;62428;51.412;5.432;2023-10-09T11:10:48;101927.88;;;18.06;100.00
74075;BME280;62428;51.412;5.432;2023-10-09T11:13:26;101928.81;;;18.11;100.00
74075;BME280;62428;51.412;5.432;2023-10-09T11:15:56;101927.41;;;18.13;100.00
74075;BME280;62428;51.412;5.432;2023-10-09T11:18:42;101937.66;;;18.16;100.00
74075;BME280;62428;51.412;5.432;2023-10-09T11:21:14;101944.38;;;18.19;100.00
74075;BME280;62428;51.412;5.432;2023-10-09T11:23:41;101944.84;;;18.21;100.00
74075;BME280;62428;51.412;5.432;2023-10-09T11:26:33;101947.44;;;18.26;100.00
74075;BME280;62428;51.412;5.432;2023-10-09T11:29:15;101938.66;;;18.29;100.00
74075;BME280;62428;51.412;5.432;2023-10-09T11:34:25;101929.38;;;18.39;100.00
74075;BME280;62428;51.412;5.432;2023-10-09T11:37:16;101934.34;;;18.46;100.00
74075;BME280;62428;51.412;5.432;2023-10-09T11:40:00;101934.16;;;18.51;100.00
74075;BME280;62428;51.412;5.432;2023-10-09T11:42:29;101922.34;;;18.55;100.00
74075;BME280;62428;51.412;5.432;2023-10-09T11:45:01;101922.50;;;18.59;100.00
74075;BME280;62428;51.412;5.432;2023-10-09T11:47:36;101914.19;;;18.64;100.00
74075;BME280;62428;51.412;5.432;2023-10-09T11:50:10;101917.88;;;18.68;100.00
74075;BME280;62428;51.412;5.432;2023-10-09T11:52:55;101917.22;;;18.71;100.00
74075;BME280;62428;51.412;5.432;2023-10-09T11:55:41;101918.97;;;18.76;100.00
74075;BME280;62428;51.412;5.432;2023-10-09T11:58:06;101925.38;;;18.80;100.00
74075;BME280;62428;51.412;5.432;2023-10-09T12:00:32;101918.53;;;18.82;100.00
74075;BME280;62428;51.412;5.432;2023-10-09T12:03:11;101914.34;;;18.85;100.00
74075;BME280;62428;51.412;5.432;2023-10-09T12:05:40;101923.81;;;18.88;100.00
74075;BME280;62428;51.412;5.432;2023-10-09T12:08:09;101924.28;;;18.90;100.00
74075;BME280;62428;51.412;5.432;2023-10-09T12:10:35;101920.91;;;18.93;100.00
74075;BME280;62428;51.412;5.432;2023-10-09T12:13:03;101920.59;;;18.94;100.00
74075;BME280;62428;51.412;5.432;2023-10-09T12:15:30;101927.31;;;18.97;100.00
74075;BME280;62428;51.412;5.432;2023-10-09T12:18:04;101914.81;;;18.96;100.00
74075;BME280;62428;51.412;5.432;2023-10-09T12:20:29;101918.03;;;18.98;100.00
74075;BME280;62428;51.412;5.432;2023-10-09T12:23:02;101916.13;;;18.98;100.00
74075;BME280;62428;51.412;5.432;2023-10-09T12:25:32;101925.41;;;18.97;100.00
74075;BME280;62428;51.412;5.432;2023-10-09T12:27:59;101916.91;;;18.99;100.00
74075;BME280;62428;51.412;5.432;2023-10-09T12:30:28;101911.00;;;18.97;100.00
74075;BME280;62428;51.412;5.432;2023-10-09T12:32:54;101911.78;;;18.97;100.00
74075;BME280;62428;51.412;5.432;2023-10-09T12:35:20;101905.22;;;18.98;100.00
74075;BME280;62428;51.412;5.432;2023-10-09T12:37:46;101904.88;;;19.00;100.00
74075;BME280;62428;51.412;5.432;2023-10-09T12:40:12;101904.56;;;19.01;100.00
74075;BME280;62428;51.412;5.432;2023-10-09T12:42:37;101906.97;;;19.03;100.00
74075;BME280;62428;51.412;5.432;2023-10-09T12:45:03;101915.13;;;19.03;100.00
74075;BME280;62428;51.412;5.432;2023-10-09T12:47:34;101915.59;;;19.05;100.00
74075;BME280;62428;51.412;5.432;2023-10-09T12:50:04;101913.72;;;19.06;100.00
74075;BME280;62428;51.412;5.432;2023-10-09T12:52:35;101909.06;;;19.06;100.00
74075;BME280;62428;51.412;5.432;2023-10-09T12:55:02;101898.16;;;19.06;100.00
74075;BME280;62428;51.412;5.432;2023-10-09T12:57:33;101899.09;;;19.10;100.00
74075;BME280;62428;51.412;5.432;2023-10-09T12:59:58;101897.31;;;19.14;100.00
74075;BME280;62428;51.412;5.432;2023-10-09T13:02:24;101899.72;;;19.16;100.00
74075;BME280;62428;51.412;5.432;2023-10-09T13:04:56;101899.88;;;19.19;100.00
74075;BME280;62428;51.412;5.432;2023-10-09T13:07:22;101882.44;;;19.20;100.00
74075;BME280;62428;51.412;5.432;2023-10-09T13:09:48;101875.50;;;19.23;100.00
74075;BME280;62428;51.412;5.432;2023-10-09T13:12:34;101871.34;;;19.26;99.51
74075;BME280;62428;51.412;5.432;2023-10-09T13:15:04;101866.03;;;19.29;99.70
74075;BME280;62428;51.412;5.432;2023-10-09T13:17:34;101870.19;;;19.35;98.48
74075;BME280;62428;51.412;5.432;2023-10-09T13:19:59;101876.59;;;19.39;97.47
74075;BME280;62428;51.412;5.432;2023-10-09T13:22:24;101866.75;;;19.47;97.46
74075;BME280;62428;51.412;5.432;2023-10-09T13:24:50;101868.19;;;19.53;97.24
74075;BME280;62428;51.412;5.432;2023-10-09T13:27:17;101865.94;;;19.55;97.67
74075;BME280;62428;51.412;5.432;2023-10-09T13:29:47;101870.25;;;19.56;98.55
74075;BME280;62428;51.412;5.432;2023-10-09T13:32:13;101872.97;;;19.56;98.59
74075;BME280;62428;51.412;5.432;2023-10-09T13:34:40;101861.28;;;19.56;99.85